sensor_id;sensor_type;location;lat;lon;timestamp;P1;durP1;ratioP1;P2;durP2;ratioP2
40971;SDS011;26701;47.408;19.174;2023-02-14T00:02:07;69.72;;;32.25;;
40971;SDS011;26701;47.408;19.174;2023-02-14T00:04:33;55.20;;;27.05;;
40971;SDS011;26701;47.408;19.174;2023-02-14T00:07:02;65.88;;;28.77;;
40971;SDS011;26701;47.408;19.174;2023-02-14T00:09:29;58.47;;;25.98;;
40971;SDS011;26701;47.408;19.174;2023-02-14T00:11:55;58.80;;;27.10;;
40971;SDS011;26701;47.408;19.174;2023-02-14T00:14:21;63.67;;;27.00;;
40971;SDS011;26701;47.408;19.174;2023-02-14T00:17:06;71.47;;;30.40;;
40971;SDS011;26701;47.408;19.174;2023-02-14T00:19:32;64.30;;;28.33;;
40971;SDS011;26701;47.408;19.174;2023-02-14T00:22:00;66.95;;;30.15;;
40971;SDS011;26701;47.408;19.174;2023-02-14T00:24:26;76.80;;;31.02;;
40971;SDS011;26701;47.408;19.174;2023-02-14T00:26:52;65.95;;;28.23;;
40971;SDS011;26701;47.408;19.174;2023-02-14T00:29:20;72.97;;;28.73;;
40971;SDS011;26701;47.408;19.174;2023-02-14T00:31:51;69.30;;;30.38;;
40971;SDS011;26701;47.408;19.174;2023-02-14T00:34:17;65.75;;;27.77;;
40971;SDS011;26701;47.408;19.174;2023-02-14T00:36:44;62.33;;;27.73;;
40971;SDS011;26701;47.408;19.174;2023-02-14T00:39:11;62.80;;;28.35;;
40971;SDS011;26701;47.408;19.174;2023-02-14T00:41:38;58.22;;;28.58;;
40971;SDS011;26701;47.408;19.174;2023-02-14T00:44:05;65.53;;;29.52;;
40971;SDS011;26701;47.408;19.174;2023-02-14T00:46:31;63.60;;;30.30;;
40971;SDS011;26701;47.408;19.174;2023-02-14T00:48:58;70.75;;;30.52;;
40971;SDS011;26701;47.408;19.174;2023-02-14T00:51:24;81.15;;;33.22;;
40971;SDS011;26701;47.408;19.174;2023-02-14T00:53:50;75.88;;;32.20;;
40971;SDS011;26701;47.408;19.174;2023-02-14T00:56:16;77.47;;;34.10;;
40971;SDS011;26701;47.408;19.174;2023-02-14T00:58:43;83.10;;;33.10;;
40971;SDS011;26701;47.408;19.174;2023-02-14T01:01:09;66.80;;;30.00;;
40971;SDS011;26701;47.408;19.174;2023-02-14T01:03:35;80.85;;;30.77;;
40971;SDS011;26701;47.408;19.174;2023-02-14T01:06:02;74.93;;;30.90;;
40971;SDS011;26701;47.408;19.174;2023-02-14T01:08:28;81.22;;;32.67;;
40971;SDS011;26701;47.408;19.174;2023-02-14T01:10:55;66.93;;;30.58;;
40971;SDS011;26701;47.408;19.174;2023-02-14T01:13:21;72.28;;;30.90;;
40971;SDS011;26701;47.408;19.174;2023-02-14T01:15:49;73.97;;;29.98;;
40971;SDS011;26701;47.408;19.174;2023-02-14T01:18:16;63.78;;;31.70;;
40971;SDS011;26701;47.408;19.174;2023-02-14T01:20:43;66.10;;;26.92;;
40971;SDS011;26701;47.408;19.174;2023-02-14T01:23:09;67.10;;;27.60;;
40971;SDS011;26701;47.408;19.174;2023-02-14T01:25:35;77.70;;;34.80;;
40971;SDS011;26701;47.408;19.174;2023-02-14T01:28:02;70.80;;;29.77;;
40971;SDS011;26701;47.408;19.174;2023-02-14T01:30:28;65.20;;;29.05;;
40971;SDS011;26701;47.408;19.174;2023-02-14T01:32:54;70.15;;;30.38;;
40971;SDS011;26701;47.408;19.174;2023-02-14T01:35:20;63.05;;;29.05;;
40971;SDS011;26701;47.408;19.174;2023-02-14T01:37:46;58.80;;;28.23;;
40971;SDS011;26701;47.408;19.174;2023-02-14T01:40:12;72.05;;;29.50;;
40971;SDS011;26701;47.408;19.174;2023-02-14T01:42:41;58.17;;;27.23;;
40971;SDS011;26701;47.408;19.174;2023-02-14T01:45:17;64.00;;;28.42;;
40971;SDS011;26701;47.408;19.174;2023-02-14T01:47:47;61.17;;;27.52;;
40971;SDS011;26701;47.408;19.174;2023-02-14T01:50:21;63.30;;;28.35;;
40971;SDS011;26701;47.408;19.174;2023-02-14T01:53:03;64.53;;;27.70;;
40971;SDS011;26701;47.408;19.174;2023-02-14T01:55:36;67.45;;;31.48;;
40971;SDS011;26701;47.408;19.174;2023-02-14T01:58:10;60.35;;;27.15;;
40971;SDS011;26701;47.408;19.174;2023-02-14T02:00:39;60.33;;;26.13;;
40971;SDS011;26701;47.408;19.174;2023-02-14T02:11:31;61.15;;;28.63;;
40971;SDS011;26701;47.408;19.174;2023-02-14T02:13:58;62.25;;;28.45;;
40971;SDS011;26701;47.408;19.174;2023-02-14T02:32:52;85.38;;;35.03;;
40971;SDS011;26701;47.408;19.174;2023-02-14T02:41:31;82.43;;;36.45;;
40971;SDS011;26701;47.408;19.174;2023-02-14T02:44:38;81.82;;;34.22;;
40971;SDS011;26701;47.408;19.174;2023-02-14T02:47:29;76.38;;;33.97;;
40971;SDS011;26701;47.408;19.174;2023-02-14T02:56:05;72.00;;;34.33;;
40971;SDS011;26701;47.408;19.174;2023-02-14T02:59:04;88.55;;;35.17;;
40971;SDS011;26701;47.408;19.174;2023-02-14T03:01:44;79.63;;;36.40;;
40971;SDS011;26701;47.408;19.174;2023-02-14T03:04:14;87.80;;;34.72;;
40971;SDS011;26701;47.408;19.174;2023-02-14T03:07:00;81.63;;;37.08;;
40971;SDS011;26701;47.408;19.174;2023-02-14T03:09:52;77.70;;;34.85;;
40971;SDS011;26701;47.408;19.174;2023-02-14T03:17:35;77.88;;;35.30;;
40971;SDS011;26701;47.408;19.174;2023-02-14T03:27:53;90.65;;;40.35;;
40971;SDS011;26701;47.408;19.174;2023-02-14T03:33:00;87.03;;;38.70;;
40971;SDS011;26701;47.408;19.174;2023-02-14T03:38:07;95.85;;;39.60;;
40971;SDS011;26701;47.408;19.174;2023-02-14T03:40:57;100.38;;;45.00;;
40971;SDS011;26701;47.408;19.174;2023-02-14T03:43:27;98.50;;;40.88;;
40971;SDS011;26701;47.408;19.174;2023-02-14T03:48:24;96.65;;;42.15;;
40971;SDS011;26701;47.408;19.174;2023-02-14T03:50:51;88.30;;;40.40;;
40971;SDS011;26701;47.408;19.174;2023-02-14T03:53:21;105.30;;;40.35;;
40971;SDS011;26701;47.408;19.174;2023-02-14T03:55:54;89.57;;;42.30;;
40971;SDS011;26701;47.408;19.174;2023-02-14T03:58:30;96.57;;;37.67;;
40971;SDS011;26701;47.408;19.174;2023-02-14T04:03:45;84.38;;;38.92;;
40971;SDS011;26701;47.408;19.174;2023-02-14T04:06:12;102.07;;;43.65;;
40971;SDS011;26701;47.408;19.174;2023-02-14T04:08:38;105.97;;;44.08;;
40971;SDS011;26701;47.408;19.174;2023-02-14T04:11:04;105.70;;;43.58;;
40971;SDS011;26701;47.408;19.174;2023-02-14T04:13:31;93.80;;;43.50;;
40971;SDS011;26701;47.408;19.174;2023-02-14T04:15:57;87.72;;;37.47;;
40971;SDS011;26701;47.408;19.174;2023-02-14T04:18:23;84.57;;;38.60;;
40971;SDS011;26701;47.408;19.174;2023-02-14T04:21:07;90.90;;;38.47;;
40971;SDS011;26701;47.408;19.174;2023-02-14T04:23:33;90.93;;;41.00;;
40971;SDS011;26701;47.408;19.174;2023-02-14T04:25:59;85.47;;;38.85;;
40971;SDS011;26701;47.408;19.174;2023-02-14T04:28:27;91.70;;;41.60;;
40971;SDS011;26701;47.408;19.174;2023-02-14T04:30:53;81.18;;;36.15;;
40971;SDS011;26701;47.408;19.174;2023-02-14T04:33:19;87.80;;;39.75;;
40971;SDS011;26701;47.408;19.174;2023-02-14T04:35:46;85.47;;;39.75;;
40971;SDS011;26701;47.408;19.174;2023-02-14T04:38:12;90.05;;;39.70;;
40971;SDS011;26701;47.408;19.174;2023-02-14T04:40:38;87.07;;;36.92;;
40971;SDS011;26701;47.408;19.174;2023-02-14T04:43:04;81.22;;;39.53;;
40971;SDS011;26701;47.408;19.174;2023-02-14T04:45:31;87.45;;;38.58;;
40971;SDS011;26701;47.408;19.174;2023-02-14T04:47:57;79.50;;;35.90;;
40971;SDS011;26701;47.408;19.174;2023-02-14T04:50:23;92.15;;;40.92;;
40971;SDS011;26701;47.408;19.174;2023-02-14T04:52:51;78.45;;;36.22;;
40971;SDS011;26701;47.408;19.174;2023-02-14T04:55:17;70.97;;;31.83;;
40971;SDS011;26701;47.408;19.174;2023-02-14T04:57:43;69.65;;;32.35;;
40971;SDS011;26701;47.408;19.174;2023-02-14T05:00:09;66.05;;;29.63;;
40971;SDS011;26701;47.408;19.174;2023-02-14T05:02:36;66.25;;;28.10;;
40971;SDS011;26701;47.408;19.174;2023-02-14T05:05:02;54.78;;;28.42;;
40971;SDS011;26701;47.408;19.174;2023-02-14T05:07:28;60.78;;;28.60;;
40971;SDS011;26701;47.408;19.174;2023-02-14T05:09:54;70.22;;;29.73;;
40971;SDS011;26701;47.408;19.174;2023-02-14T05:12:20;72.60;;;32.58;;
40971;SDS011;26701;47.408;19.174;2023-02-14T05:14:46;85.82;;;40.45;;
40971;SDS011;26701;47.408;19.174;2023-02-14T05:17:12;89.80;;;42.00;;
40971;SDS011;26701;47.408;19.174;2023-02-14T05:19:38;88.80;;;37.55;;
40971;SDS011;26701;47.408;19.174;2023-02-14T05:22:04;85.10;;;40.20;;
40971;SDS011;26701;47.408;19.174;2023-02-14T05:24:30;77.53;;;40.08;;
40971;SDS011;26701;47.408;19.174;2023-02-14T05:26:56;81.13;;;38.95;;
40971;SDS011;26701;47.408;19.174;2023-02-14T05:29:22;79.70;;;36.95;;
40971;SDS011;26701;47.408;19.174;2023-02-14T05:31:48;83.97;;;37.47;;
40971;SDS011;26701;47.408;19.174;2023-02-14T05:34:14;82.03;;;34.83;;
40971;SDS011;26701;47.408;19.174;2023-02-14T05:36:40;80.72;;;35.80;;
40971;SDS011;26701;47.408;19.174;2023-02-14T05:39:06;72.63;;;34.20;;
40971;SDS011;26701;47.408;19.174;2023-02-14T05:41:32;75.65;;;31.67;;
40971;SDS011;26701;47.408;19.174;2023-02-14T05:43:58;75.43;;;32.45;;
40971;SDS011;26701;47.408;19.174;2023-02-14T05:46:25;69.55;;;31.98;;
40971;SDS011;26701;47.408;19.174;2023-02-14T05:48:51;74.85;;;34.08;;
40971;SDS011;26701;47.408;19.174;2023-02-14T05:51:17;73.38;;;32.15;;
40971;SDS011;26701;47.408;19.174;2023-02-14T05:53:43;72.25;;;32.35;;
40971;SDS011;26701;47.408;19.174;2023-02-14T05:56:09;69.55;;;31.15;;
40971;SDS011;26701;47.408;19.174;2023-02-14T05:58:35;75.38;;;33.78;;
40971;SDS011;26701;47.408;19.174;2023-02-14T06:01:01;75.28;;;33.47;;
40971;SDS011;26701;47.408;19.174;2023-02-14T06:03:27;75.85;;;32.67;;
40971;SDS011;26701;47.408;19.174;2023-02-14T06:05:53;73.95;;;31.88;;
40971;SDS011;26701;47.408;19.174;2023-02-14T06:08:19;75.57;;;35.75;;
40971;SDS011;26701;47.408;19.174;2023-02-14T06:10:45;76.50;;;36.03;;
40971;SDS011;26701;47.408;19.174;2023-02-14T06:13:11;73.75;;;38.55;;
40971;SDS011;26701;47.408;19.174;2023-02-14T06:15:37;73.85;;;33.30;;
40971;SDS011;26701;47.408;19.174;2023-02-14T06:18:03;72.45;;;33.83;;
40971;SDS011;26701;47.408;19.174;2023-02-14T06:20:30;81.10;;;34.58;;
40971;SDS011;26701;47.408;19.174;2023-02-14T06:22:56;70.55;;;31.40;;
40971;SDS011;26701;47.408;19.174;2023-02-14T06:25:22;79.65;;;35.92;;
40971;SDS011;26701;47.408;19.174;2023-02-14T06:27:48;71.50;;;33.33;;
40971;SDS011;26701;47.408;19.174;2023-02-14T06:30:14;66.40;;;31.35;;
40971;SDS011;26701;47.408;19.174;2023-02-14T06:32:41;76.00;;;32.40;;
40971;SDS011;26701;47.408;19.174;2023-02-14T06:35:07;73.88;;;32.35;;
40971;SDS011;26701;47.408;19.174;2023-02-14T06:37:33;72.65;;;32.53;;
40971;SDS011;26701;47.408;19.174;2023-02-14T06:39:59;71.45;;;30.30;;
40971;SDS011;26701;47.408;19.174;2023-02-14T06:42:26;81.93;;;34.80;;
40971;SDS011;26701;47.408;19.174;2023-02-14T06:44:53;64.18;;;29.50;;
40971;SDS011;26701;47.408;19.174;2023-02-14T06:47:19;71.07;;;29.38;;
40971;SDS011;26701;47.408;19.174;2023-02-14T06:49:45;63.47;;;29.30;;
40971;SDS011;26701;47.408;19.174;2023-02-14T06:52:11;76.28;;;32.70;;
40971;SDS011;26701;47.408;19.174;2023-02-14T06:54:37;68.07;;;33.63;;
40971;SDS011;26701;47.408;19.174;2023-02-14T06:57:03;72.60;;;35.28;;
40971;SDS011;26701;47.408;19.174;2023-02-14T06:59:29;72.45;;;34.22;;
40971;SDS011;26701;47.408;19.174;2023-02-14T07:01:55;79.60;;;35.38;;
40971;SDS011;26701;47.408;19.174;2023-02-14T07:04:21;72.93;;;33.63;;
40971;SDS011;26701;47.408;19.174;2023-02-14T07:06:47;79.82;;;36.97;;
40971;SDS011;26701;47.408;19.174;2023-02-14T07:09:13;85.20;;;35.80;;
40971;SDS011;26701;47.408;19.174;2023-02-14T07:11:45;70.03;;;33.78;;
40971;SDS011;26701;47.408;19.174;2023-02-14T07:14:11;72.45;;;34.58;;
40971;SDS011;26701;47.408;19.174;2023-02-14T07:16:37;74.35;;;32.72;;
40971;SDS011;26701;47.408;19.174;2023-02-14T07:19:04;71.95;;;33.55;;
40971;SDS011;26701;47.408;19.174;2023-02-14T07:21:30;64.75;;;31.88;;
40971;SDS011;26701;47.408;19.174;2023-02-14T07:23:56;65.45;;;30.65;;
40971;SDS011;26701;47.408;19.174;2023-02-14T07:26:22;67.43;;;30.77;;
40971;SDS011;26701;47.408;19.174;2023-02-14T07:28:48;64.20;;;30.98;;
40971;SDS011;26701;47.408;19.174;2023-02-14T07:31:14;65.28;;;31.45;;
40971;SDS011;26701;47.408;19.174;2023-02-14T07:33:41;70.47;;;33.05;;
40971;SDS011;26701;47.408;19.174;2023-02-14T07:36:07;73.45;;;31.65;;
40971;SDS011;26701;47.408;19.174;2023-02-14T07:38:34;68.30;;;31.67;;
40971;SDS011;26701;47.408;19.174;2023-02-14T07:41:00;64.53;;;33.45;;
40971;SDS011;26701;47.408;19.174;2023-02-14T07:43:26;70.15;;;33.20;;
40971;SDS011;26701;47.408;19.174;2023-02-14T07:45:52;72.50;;;33.75;;
40971;SDS011;26701;47.408;19.174;2023-02-14T07:48:18;73.85;;;34.53;;
40971;SDS011;26701;47.408;19.174;2023-02-14T07:50:44;65.55;;;30.90;;
40971;SDS011;26701;47.408;19.174;2023-02-14T07:53:10;64.00;;;30.10;;
40971;SDS011;26701;47.408;19.174;2023-02-14T07:55:37;56.45;;;28.38;;
40971;SDS011;26701;47.408;19.174;2023-02-14T07:58:04;62.90;;;29.85;;
40971;SDS011;26701;47.408;19.174;2023-02-14T08:00:30;66.72;;;31.65;;
40971;SDS011;26701;47.408;19.174;2023-02-14T08:02:56;64.00;;;30.77;;
40971;SDS011;26701;47.408;19.174;2023-02-14T08:05:22;58.03;;;32.50;;
40971;SDS011;26701;47.408;19.174;2023-02-14T08:07:48;57.22;;;28.55;;
40971;SDS011;26701;47.408;19.174;2023-02-14T08:10:14;51.70;;;25.83;;
40971;SDS011;26701;47.408;19.174;2023-02-14T08:12:41;50.90;;;24.17;;
40971;SDS011;26701;47.408;19.174;2023-02-14T08:15:25;46.85;;;23.30;;
40971;SDS011;26701;47.408;19.174;2023-02-14T08:18:19;42.03;;;20.88;;
40971;SDS011;26701;47.408;19.174;2023-02-14T08:20:47;42.28;;;23.70;;
40971;SDS011;26701;47.408;19.174;2023-02-14T08:23:14;47.25;;;22.10;;
40971;SDS011;26701;47.408;19.174;2023-02-14T08:25:41;46.60;;;21.35;;
40971;SDS011;26701;47.408;19.174;2023-02-14T08:28:07;41.22;;;22.23;;
40971;SDS011;26701;47.408;19.174;2023-02-14T08:30:34;44.70;;;20.70;;
40971;SDS011;26701;47.408;19.174;2023-02-14T08:33:02;40.13;;;25.48;;
40971;SDS011;26701;47.408;19.174;2023-02-14T08:35:28;46.25;;;22.00;;
40971;SDS011;26701;47.408;19.174;2023-02-14T08:37:54;42.80;;;22.92;;
40971;SDS011;26701;47.408;19.174;2023-02-14T08:40:19;39.85;;;20.45;;
40971;SDS011;26701;47.408;19.174;2023-02-14T08:42:46;38.78;;;21.13;;
40971;SDS011;26701;47.408;19.174;2023-02-14T08:45:11;41.80;;;20.70;;
40971;SDS011;26701;47.408;19.174;2023-02-14T08:47:37;40.88;;;20.85;;
40971;SDS011;26701;47.408;19.174;2023-02-14T08:50:05;41.15;;;19.33;;
40971;SDS011;26701;47.408;19.174;2023-02-14T08:52:33;45.05;;;23.20;;
40971;SDS011;26701;47.408;19.174;2023-02-14T08:54:59;38.30;;;19.27;;
40971;SDS011;26701;47.408;19.174;2023-02-14T08:57:26;43.13;;;21.50;;
40971;SDS011;26701;47.408;19.174;2023-02-14T08:59:52;36.78;;;19.50;;
40971;SDS011;26701;47.408;19.174;2023-02-14T09:02:18;35.70;;;19.13;;
40971;SDS011;26701;47.408;19.174;2023-02-14T09:04:44;31.92;;;17.17;;
40971;SDS011;26701;47.408;19.174;2023-02-14T09:07:11;31.05;;;16.58;;
40971;SDS011;26701;47.408;19.174;2023-02-14T09:09:37;30.50;;;17.23;;
40971;SDS011;26701;47.408;19.174;2023-02-14T09:12:04;31.58;;;15.95;;
40971;SDS011;26701;47.408;19.174;2023-02-14T09:14:35;89.82;;;49.88;;
40971;SDS011;26701;47.408;19.174;2023-02-14T09:17:07;36.90;;;21.13;;
40971;SDS011;26701;47.408;19.174;2023-02-14T09:19:34;34.45;;;18.50;;
40971;SDS011;26701;47.408;19.174;2023-02-14T09:22:02;30.25;;;15.43;;
40971;SDS011;26701;47.408;19.174;2023-02-14T09:24:29;30.63;;;16.60;;
40971;SDS011;26701;47.408;19.174;2023-02-14T09:26:56;30.02;;;15.13;;
40971;SDS011;26701;47.408;19.174;2023-02-14T09:29:23;30.35;;;15.75;;
40971;SDS011;26701;47.408;19.174;2023-02-14T09:31:53;27.27;;;13.70;;
40971;SDS011;26701;47.408;19.174;2023-02-14T09:34:19;29.98;;;14.35;;
40971;SDS011;26701;47.408;19.174;2023-02-14T09:37:03;27.40;;;14.43;;
40971;SDS011;26701;47.408;19.174;2023-02-14T09:39:29;19.75;;;10.43;;
40971;SDS011;26701;47.408;19.174;2023-02-14T09:47:13;19.70;;;10.55;;
40971;SDS011;26701;47.408;19.174;2023-02-14T09:49:46;22.40;;;11.23;;
40971;SDS011;26701;47.408;19.174;2023-02-14T09:52:14;17.60;;;10.43;;
40971;SDS011;26701;47.408;19.174;2023-02-14T09:54:44;19.80;;;10.82;;
40971;SDS011;26701;47.408;19.174;2023-02-14T09:57:20;21.40;;;10.68;;
40971;SDS011;26701;47.408;19.174;2023-02-14T10:05:28;19.17;;;10.10;;
40971;SDS011;26701;47.408;19.174;2023-02-14T10:11:05;19.90;;;11.18;;
40971;SDS011;26701;47.408;19.174;2023-02-14T10:13:41;22.13;;;12.27;;
40971;SDS011;26701;47.408;19.174;2023-02-14T10:21:41;24.03;;;11.27;;
40971;SDS011;26701;47.408;19.174;2023-02-14T10:24:29;24.88;;;11.98;;
40971;SDS011;26701;47.408;19.174;2023-02-14T10:27:04;23.90;;;12.48;;
40971;SDS011;26701;47.408;19.174;2023-02-14T10:29:56;21.73;;;12.75;;
40971;SDS011;26701;47.408;19.174;2023-02-14T10:32:44;23.98;;;13.55;;
40971;SDS011;26701;47.408;19.174;2023-02-14T10:35:58;22.52;;;11.68;;
40971;SDS011;26701;47.408;19.174;2023-02-14T10:41:11;24.30;;;12.10;;
40971;SDS011;26701;47.408;19.174;2023-02-14T10:52:04;26.58;;;12.88;;
40971;SDS011;26701;47.408;19.174;2023-02-14T10:57:55;25.08;;;13.85;;
40971;SDS011;26701;47.408;19.174;2023-02-14T11:02:49;23.88;;;13.35;;
40971;SDS011;26701;47.408;19.174;2023-02-14T11:05:40;26.50;;;14.85;;
40971;SDS011;26701;47.408;19.174;2023-02-14T11:10:37;22.05;;;12.40;;
40971;SDS011;26701;47.408;19.174;2023-02-14T11:13:09;23.92;;;13.57;;
40971;SDS011;26701;47.408;19.174;2023-02-14T11:15:56;24.38;;;15.00;;
40971;SDS011;26701;47.408;19.174;2023-02-14T11:18:27;21.23;;;13.32;;
40971;SDS011;26701;47.408;19.174;2023-02-14T11:23:41;27.17;;;14.38;;
40971;SDS011;26701;47.408;19.174;2023-02-14T11:26:30;26.27;;;14.77;;
40971;SDS011;26701;47.408;19.174;2023-02-14T11:31:34;30.60;;;14.98;;
40971;SDS011;26701;47.408;19.174;2023-02-14T11:34:02;24.08;;;13.05;;
40971;SDS011;26701;47.408;19.174;2023-02-14T11:36:46;25.15;;;14.40;;
40971;SDS011;26701;47.408;19.174;2023-02-14T11:39:17;27.92;;;15.77;;
40971;SDS011;26701;47.408;19.174;2023-02-14T11:41:52;26.92;;;14.07;;
40971;SDS011;26701;47.408;19.174;2023-02-14T11:44:23;25.85;;;15.32;;
40971;SDS011;26701;47.408;19.174;2023-02-14T11:46:52;28.52;;;14.68;;
40971;SDS011;26701;47.408;19.174;2023-02-14T11:51:55;26.48;;;13.52;;
40971;SDS011;26701;47.408;19.174;2023-02-14T11:54:46;23.73;;;13.45;;
40971;SDS011;26701;47.408;19.174;2023-02-14T11:59:48;27.98;;;14.60;;
40971;SDS011;26701;47.408;19.174;2023-02-14T12:02:20;27.75;;;13.50;;
40971;SDS011;26701;47.408;19.174;2023-02-14T12:05:16;26.05;;;14.82;;
40971;SDS011;26701;47.408;19.174;2023-02-14T12:07:58;27.70;;;14.48;;
40971;SDS011;26701;47.408;19.174;2023-02-14T12:15:27;28.25;;;14.88;;
40971;SDS011;26701;47.408;19.174;2023-02-14T12:20:52;25.58;;;15.55;;
40971;SDS011;26701;47.408;19.174;2023-02-14T12:25:53;25.90;;;15.43;;
40971;SDS011;26701;47.408;19.174;2023-02-14T12:28:38;27.13;;;14.63;;
40971;SDS011;26701;47.408;19.174;2023-02-14T12:31:10;26.85;;;14.77;;
40971;SDS011;26701;47.408;19.174;2023-02-14T12:33:37;25.42;;;15.43;;
40971;SDS011;26701;47.408;19.174;2023-02-14T12:41:32;28.90;;;14.15;;
40971;SDS011;26701;47.408;19.174;2023-02-14T12:44:11;28.85;;;14.75;;
40971;SDS011;26701;47.408;19.174;2023-02-14T12:49:28;25.70;;;13.40;;
40971;SDS011;26701;47.408;19.174;2023-02-14T12:52:10;25.10;;;12.98;;
40971;SDS011;26701;47.408;19.174;2023-02-14T12:54:48;21.35;;;12.13;;
40971;SDS011;26701;47.408;19.174;2023-02-14T13:02:56;24.95;;;13.35;;
40971;SDS011;26701;47.408;19.174;2023-02-14T13:13:32;25.52;;;13.30;;
40971;SDS011;26701;47.408;19.174;2023-02-14T13:16:13;22.73;;;13.45;;
40971;SDS011;26701;47.408;19.174;2023-02-14T13:21:45;22.55;;;13.00;;
40971;SDS011;26701;47.408;19.174;2023-02-14T13:26:40;19.50;;;11.70;;
40971;SDS011;26701;47.408;19.174;2023-02-14T13:29:10;20.88;;;11.82;;
40971;SDS011;26701;47.408;19.174;2023-02-14T13:31:44;20.80;;;12.90;;
40971;SDS011;26701;47.408;19.174;2023-02-14T13:36:54;23.73;;;13.65;;
40971;SDS011;26701;47.408;19.174;2023-02-14T13:39:35;26.50;;;14.60;;
40971;SDS011;26701;47.408;19.174;2023-02-14T13:42:08;22.48;;;11.82;;
40971;SDS011;26701;47.408;19.174;2023-02-14T13:47:15;24.13;;;12.55;;
40971;SDS011;26701;47.408;19.174;2023-02-14T13:49:47;23.13;;;13.35;;
40971;SDS011;26701;47.408;19.174;2023-02-14T13:55:27;22.70;;;15.23;;
40971;SDS011;26701;47.408;19.174;2023-02-14T13:58:11;24.83;;;14.50;;
40971;SDS011;26701;47.408;19.174;2023-02-14T14:00:42;25.00;;;13.50;;
40971;SDS011;26701;47.408;19.174;2023-02-14T14:06:07;24.45;;;14.60;;
40971;SDS011;26701;47.408;19.174;2023-02-14T14:11:09;19.33;;;12.45;;
40971;SDS011;26701;47.408;19.174;2023-02-14T14:18:48;23.33;;;15.07;;
40971;SDS011;26701;47.408;19.174;2023-02-14T14:21:31;18.33;;;12.27;;
40971;SDS011;26701;47.408;19.174;2023-02-14T14:26:45;17.17;;;12.20;;
40971;SDS011;26701;47.408;19.174;2023-02-14T14:29:34;33.83;;;30.83;;
40971;SDS011;26701;47.408;19.174;2023-02-14T14:32:07;18.73;;;12.27;;
40971;SDS011;26701;47.408;19.174;2023-02-14T14:35:05;17.27;;;11.77;;
40971;SDS011;26701;47.408;19.174;2023-02-14T14:37:47;16.13;;;11.20;;
40971;SDS011;26701;47.408;19.174;2023-02-14T14:42:54;15.90;;;11.07;;
40971;SDS011;26701;47.408;19.174;2023-02-14T14:45:24;18.83;;;11.25;;
40971;SDS011;26701;47.408;19.174;2023-02-14T14:47:52;17.05;;;10.63;;
40971;SDS011;26701;47.408;19.174;2023-02-14T14:50:24;15.73;;;10.52;;
40971;SDS011;26701;47.408;19.174;2023-02-14T14:53:53;22.25;;;10.93;;
40971;SDS011;26701;47.408;19.174;2023-02-14T14:55:56;19.35;;;10.40;;
40971;SDS011;26701;47.408;19.174;2023-02-14T14:58:30;19.80;;;11.95;;
40971;SDS011;26701;47.408;19.174;2023-02-14T15:01:01;16.63;;;12.60;;
40971;SDS011;26701;47.408;19.174;2023-02-14T15:03:28;17.23;;;11.45;;
40971;SDS011;26701;47.408;19.174;2023-02-14T15:06:12;103.43;;;47.78;;
40971;SDS011;26701;47.408;19.174;2023-02-14T15:08:46;20.17;;;12.93;;
40971;SDS011;26701;47.408;19.174;2023-02-14T15:14:08;22.50;;;12.88;;
40971;SDS011;26701;47.408;19.174;2023-02-14T15:16:40;24.05;;;13.70;;
40971;SDS011;26701;47.408;19.174;2023-02-14T15:19:21;20.95;;;13.15;;
40971;SDS011;26701;47.408;19.174;2023-02-14T15:21:58;26.40;;;14.05;;
40971;SDS011;26701;47.408;19.174;2023-02-14T15:24:25;28.67;;;15.38;;
40971;SDS011;26701;47.408;19.174;2023-02-14T15:26:51;25.92;;;13.68;;
40971;SDS011;26701;47.408;19.174;2023-02-14T15:29:27;27.92;;;15.68;;
40971;SDS011;26701;47.408;19.174;2023-02-14T15:31:55;30.45;;;15.38;;
40971;SDS011;26701;47.408;19.174;2023-02-14T15:34:23;28.55;;;16.00;;
40971;SDS011;26701;47.408;19.174;2023-02-14T15:36:53;44.28;;;24.77;;
40971;SDS011;26701;47.408;19.174;2023-02-14T15:39:25;63.63;;;31.42;;
40971;SDS011;26701;47.408;19.174;2023-02-14T15:42:04;34.83;;;19.90;;
40971;SDS011;26701;47.408;19.174;2023-02-14T15:44:30;39.85;;;20.65;;
40971;SDS011;26701;47.408;19.174;2023-02-14T15:47:00;39.03;;;20.40;;
40971;SDS011;26701;47.408;19.174;2023-02-14T15:49:33;94.60;;;46.28;;
40971;SDS011;26701;47.408;19.174;2023-02-14T15:52:05;41.15;;;21.60;;
40971;SDS011;26701;47.408;19.174;2023-02-14T15:54:34;81.38;;;38.15;;
40971;SDS011;26701;47.408;19.174;2023-02-14T15:57:03;42.40;;;21.65;;
40971;SDS011;26701;47.408;19.174;2023-02-14T15:59:31;44.38;;;21.08;;
40971;SDS011;26701;47.408;19.174;2023-02-14T16:04:24;34.22;;;19.35;;
40971;SDS011;26701;47.408;19.174;2023-02-14T16:09:50;31.33;;;15.97;;
40971;SDS011;26701;47.408;19.174;2023-02-14T16:12:36;31.10;;;16.08;;
40971;SDS011;26701;47.408;19.174;2023-02-14T16:17:33;33.03;;;17.30;;
40971;SDS011;26701;47.408;19.174;2023-02-14T16:22:45;39.45;;;18.75;;
40971;SDS011;26701;47.408;19.174;2023-02-14T16:25:12;43.20;;;19.00;;
40971;SDS011;26701;47.408;19.174;2023-02-14T16:27:37;35.13;;;18.73;;
40971;SDS011;26701;47.408;19.174;2023-02-14T16:30:04;36.90;;;21.13;;
40971;SDS011;26701;47.408;19.174;2023-02-14T16:32:30;38.72;;;20.38;;
40971;SDS011;26701;47.408;19.174;2023-02-14T16:34:56;37.63;;;21.33;;
40971;SDS011;26701;47.408;19.174;2023-02-14T16:37:23;45.83;;;24.60;;
40971;SDS011;26701;47.408;19.174;2023-02-14T16:39:53;38.42;;;20.35;;
40971;SDS011;26701;47.408;19.174;2023-02-14T16:44:47;33.03;;;17.02;;
40971;SDS011;26701;47.408;19.174;2023-02-14T16:47:15;45.35;;;20.98;;
40971;SDS011;26701;47.408;19.174;2023-02-14T16:49:41;40.55;;;24.35;;
40971;SDS011;26701;47.408;19.174;2023-02-14T16:52:09;52.05;;;28.63;;
40971;SDS011;26701;47.408;19.174;2023-02-14T16:54:38;43.42;;;23.98;;
40971;SDS011;26701;47.408;19.174;2023-02-14T16:57:04;46.90;;;26.23;;
40971;SDS011;26701;47.408;19.174;2023-02-14T16:59:31;51.08;;;24.20;;
40971;SDS011;26701;47.408;19.174;2023-02-14T17:01:57;47.25;;;23.83;;
40971;SDS011;26701;47.408;19.174;2023-02-14T17:04:23;52.90;;;25.30;;
40971;SDS011;26701;47.408;19.174;2023-02-14T17:06:51;47.80;;;23.50;;
40971;SDS011;26701;47.408;19.174;2023-02-14T17:11:46;39.88;;;20.65;;
40971;SDS011;26701;47.408;19.174;2023-02-14T17:14:15;45.65;;;22.65;;
40971;SDS011;26701;47.408;19.174;2023-02-14T17:16:45;52.45;;;23.20;;
40971;SDS011;26701;47.408;19.174;2023-02-14T17:19:11;41.63;;;21.55;;
40971;SDS011;26701;47.408;19.174;2023-02-14T17:21:37;48.20;;;20.10;;
40971;SDS011;26701;47.408;19.174;2023-02-14T17:24:03;47.30;;;23.00;;
40971;SDS011;26701;47.408;19.174;2023-02-14T17:26:30;46.47;;;22.73;;
40971;SDS011;26701;47.408;19.174;2023-02-14T17:28:58;47.80;;;23.58;;
40971;SDS011;26701;47.408;19.174;2023-02-14T17:31:24;53.25;;;22.38;;
40971;SDS011;26701;47.408;19.174;2023-02-14T17:33:50;53.65;;;25.55;;
40971;SDS011;26701;47.408;19.174;2023-02-14T17:36:16;51.47;;;21.98;;